createdAt,value
2023-05-08T00:00:49.016Z,7.68
2023-05-08T00:03:17.286Z,8.57
2023-05-08T00:06:55.316Z,8.23
2023-05-08T00:09:21.729Z,7.95
2023-05-08T00:11:48.464Z,7.70
2023-05-08T00:14:15.315Z,7.70
2023-05-08T00:16:41.723Z,7.30
2023-05-08T00:19:08.591Z,6.72
2023-05-08T00:21:35.078Z,7.45
2023-05-08T00:24:01.406Z,7.05
2023-05-08T00:26:27.698Z,7.45
2023-05-08T00:28:54.019Z,7.03
2023-05-08T00:31:20.362Z,7.70
2023-05-08T00:33:46.674Z,7.60
2023-05-08T00:36:15.542Z,7.65
2023-05-08T00:38:42.050Z,7.43
2023-05-08T00:41:08.548Z,7.28
2023-05-08T00:43:35.754Z,7.40
2023-05-08T00:46:02.280Z,7.68
2023-05-08T00:48:31.887Z,7.45
2023-05-08T00:50:58.943Z,8.38
2023-05-08T00:53:27.389Z,7.63
2023-05-08T00:55:53.916Z,7.32
2023-05-08T00:58:21.004Z,8.02
2023-05-08T01:00:48.213Z,7.80
2023-05-08T01:03:15.295Z,7.88
2023-05-08T01:05:42.906Z,7.75
2023-05-08T01:08:09.579Z,7.80
2023-05-08T01:10:47.195Z,8.05
2023-05-08T01:13:25.768Z,7.80
2023-05-08T01:16:03.371Z,7.90
2023-05-08T01:18:38.659Z,7.53
2023-05-08T01:21:29.986Z,7.32
2023-05-08T01:24:06.064Z,8.05
2023-05-08T01:27:01.851Z,7.97
2023-05-08T01:29:47.853Z,7.88
2023-05-08T01:32:15.729Z,7.70
2023-05-08T01:35:10.540Z,8.27
2023-05-08T01:37:42.107Z,8.50
2023-05-08T01:40:21.542Z,8.20
2023-05-08T01:43:01.606Z,7.85
2023-05-08T01:45:40.290Z,8.05
2023-05-08T01:48:13.416Z,8.20
2023-05-08T01:50:46.569Z,8.20
2023-05-08T01:53:21.359Z,8.60
2023-05-08T01:55:52.246Z,8.27
2023-05-08T01:58:19.990Z,8.30
2023-05-08T02:00:48.198Z,8.00
2023-05-08T02:03:16.564Z,8.70
2023-05-08T02:05:44.411Z,7.93
2023-05-08T02:08:12.905Z,8.13
2023-05-08T02:10:41.291Z,7.95
2023-05-08T02:13:10.222Z,8.18
2023-05-08T02:15:39.467Z,8.32
2023-05-08T02:18:08.260Z,8.55
2023-05-08T02:20:35.648Z,8.30
2023-05-08T02:23:02.412Z,8.13
2023-05-08T02:25:30.826Z,9.00
2023-05-08T02:27:58.252Z,8.52
2023-05-08T02:30:26.247Z,9.07
2023-05-08T02:32:54.898Z,9.18
2023-05-08T02:35:22.486Z,8.88
2023-05-08T02:37:55.116Z,8.77
2023-05-08T02:40:23.237Z,8.85
2023-05-08T02:42:50.365Z,8.57
2023-05-08T02:45:16.813Z,9.25
2023-05-08T02:47:56.926Z,8.63
2023-05-08T02:50:49.405Z,8.23
2023-05-08T02:53:20.440Z,8.10
2023-05-08T02:55:49.586Z,8.82
2023-05-08T02:58:24.977Z,8.55
2023-05-08T03:03:39.829Z,7.88
2023-05-08T03:06:13.267Z,8.65
2023-05-08T03:08:40.501Z,9.05
2023-05-08T03:11:15.255Z,8.05
2023-05-08T03:13:44.023Z,8.23
2023-05-08T03:16:24.026Z,7.95
2023-05-08T03:18:59.474Z,8.07
2023-05-08T03:23:57.184Z,7.28
2023-05-08T03:26:23.692Z,7.65
2023-05-08T03:28:51.184Z,7.97
2023-05-08T03:31:20.936Z,8.30
2023-05-08T03:33:48.880Z,7.60
2023-05-08T03:36:16.013Z,7.75
2023-05-08T03:38:42.523Z,7.80
2023-05-08T03:41:09.249Z,8.43
2023-05-08T03:43:37.732Z,7.90
2023-05-08T03:46:08.202Z,8.10
2023-05-08T03:48:35.578Z,7.85
2023-05-08T03:51:03.260Z,7.40
2023-05-08T03:53:31.621Z,8.20
2023-05-08T03:55:59.147Z,7.28
2023-05-08T03:58:44.277Z,7.18
2023-05-08T04:01:28.640Z,7.82
2023-05-08T04:04:16.167Z,7.65
2023-05-08T04:06:49.363Z,8.43
2023-05-08T04:09:24.581Z,7.77
2023-05-08T04:12:00.570Z,8.15
2023-05-08T04:14:31.842Z,7.97
2023-05-08T04:17:04.038Z,8.32
2023-05-08T04:19:46.205Z,8.88
2023-05-08T04:22:13.065Z,7.85
2023-05-08T04:24:47.916Z,8.13
2023-05-08T04:27:15.685Z,7.85
2023-05-08T04:29:42.454Z,7.43
2023-05-08T04:32:09.046Z,7.40
2023-05-08T04:34:36.228Z,7.50
2023-05-08T04:37:03.527Z,7.88
2023-05-08T04:39:29.862Z,7.50
2023-05-08T04:42:02.451Z,7.10
2023-05-08T04:44:29.530Z,7.18
2023-05-08T04:46:55.961Z,8.10
2023-05-08T04:49:22.245Z,7.65
2023-05-08T04:51:48.560Z,7.47
2023-05-08T04:54:15.025Z,7.95
2023-05-08T04:56:41.319Z,7.97
2023-05-08T04:59:07.976Z,8.27
2023-05-08T05:01:34.304Z,8.32
2023-05-08T05:04:01.194Z,8.55
2023-05-08T05:06:27.627Z,8.98
2023-05-08T05:08:54.014Z,8.18
2023-05-08T05:11:21.324Z,7.78
2023-05-08T05:13:47.774Z,7.75
2023-05-08T05:16:14.203Z,8.15
2023-05-08T05:18:40.629Z,8.10
2023-05-08T05:21:07.026Z,7.85
2023-05-08T05:23:33.310Z,8.30
2023-05-08T05:25:59.659Z,8.20
2023-05-08T05:28:26.482Z,7.85
2023-05-08T05:30:53.063Z,7.68
2023-05-08T05:33:19.606Z,7.78
2023-05-08T05:35:46.240Z,7.05
2023-05-08T05:38:12.625Z,6.82
2023-05-08T05:40:39.020Z,7.72
2023-05-08T05:43:05.404Z,8.10
2023-05-08T05:45:33.604Z,7.95
2023-05-08T05:48:00.426Z,6.65
2023-05-08T05:50:27.133Z,8.60
2023-05-08T05:52:54.245Z,8.02
2023-05-08T05:55:20.829Z,7.47
2023-05-08T05:57:47.486Z,7.35
2023-05-08T06:00:14.347Z,7.05
2023-05-08T06:02:41.780Z,7.05
2023-05-08T06:05:08.733Z,7.45
2023-05-08T06:07:35.741Z,7.90
2023-05-08T06:10:02.699Z,7.82
2023-05-08T06:12:29.817Z,7.45
2023-05-08T06:14:56.166Z,7.60
2023-05-08T06:17:22.974Z,7.93
2023-05-08T06:19:50.520Z,7.72
2023-05-08T06:22:18.282Z,7.75
2023-05-08T06:24:45.116Z,8.30
2023-05-08T06:27:11.653Z,7.57
2023-05-08T06:29:38.049Z,8.18
2023-05-08T06:32:04.594Z,7.57
2023-05-08T06:34:31.499Z,7.80
2023-05-08T06:36:57.889Z,8.15
2023-05-08T06:39:24.474Z,7.80
2023-05-08T06:41:50.792Z,7.97
2023-05-08T06:44:17.133Z,8.05
2023-05-08T06:46:43.537Z,8.55
2023-05-08T06:49:10.076Z,8.60
2023-05-08T06:51:38.244Z,8.13
2023-05-08T06:54:08.103Z,7.88
2023-05-08T06:56:35.254Z,7.50
2023-05-08T06:59:08.502Z,8.40
2023-05-08T07:01:35.730Z,7.82
2023-05-08T07:06:52.495Z,9.10
2023-05-08T07:09:18.815Z,8.90
2023-05-08T07:11:45.182Z,8.57
2023-05-08T07:14:11.601Z,9.65
2023-05-08T07:16:38.074Z,8.32
2023-05-08T07:19:04.751Z,9.00
2023-05-08T07:21:31.149Z,8.00
2023-05-08T07:23:57.495Z,8.30
2023-05-08T07:26:24.159Z,8.13
2023-05-08T07:28:54.167Z,7.95
2023-05-08T07:31:21.573Z,7.90
2023-05-08T07:33:48.082Z,7.50
2023-05-08T07:36:14.420Z,8.05
2023-05-08T07:38:40.871Z,7.55
2023-05-08T07:41:07.873Z,8.10
2023-05-08T07:43:34.229Z,8.82
2023-05-08T07:46:00.655Z,7.97
2023-05-08T07:48:26.984Z,7.68
2023-05-08T07:50:53.275Z,8.00
2023-05-08T07:53:19.659Z,7.65
2023-05-08T07:55:45.981Z,8.05
2023-05-08T07:58:12.485Z,7.80
2023-05-08T08:00:39.614Z,7.53
2023-05-08T08:03:06.190Z,7.47
2023-05-08T08:05:32.801Z,7.80
2023-05-08T08:07:59.230Z,7.20
2023-05-08T08:10:25.909Z,8.10
2023-05-08T08:12:52.256Z,7.38
2023-05-08T08:15:18.673Z,7.75
2023-05-08T08:17:45.009Z,7.75
2023-05-08T08:20:11.799Z,8.02
2023-05-08T08:22:38.854Z,8.23
2023-05-08T08:25:05.880Z,7.15
2023-05-08T08:27:32.202Z,7.50
2023-05-08T08:30:12.764Z,7.50
2023-05-08T08:32:43.790Z,8.25
2023-05-08T08:35:10.547Z,7.70
2023-05-08T08:37:37.033Z,8.23
2023-05-08T08:40:03.758Z,7.15
2023-05-08T08:42:30.339Z,8.13
2023-05-08T08:44:56.781Z,8.13
2023-05-08T08:47:28.695Z,7.43
2023-05-08T08:49:55.617Z,7.75
2023-05-08T08:52:31.905Z,7.65
2023-05-08T08:55:02.289Z,7.25
2023-05-08T08:57:33.842Z,6.95
2023-05-08T09:00:05.042Z,6.78
2023-05-08T09:02:32.245Z,7.88
2023-05-08T09:04:59.441Z,7.47
2023-05-08T09:07:27.048Z,7.10
2023-05-08T09:09:53.920Z,6.15
2023-05-08T09:12:20.989Z,7.28
2023-05-08T09:14:47.570Z,9.13
2023-05-08T09:17:14.280Z,7.40
2023-05-08T09:19:40.784Z,7.93
2023-05-08T09:22:09.205Z,6.88
2023-05-08T09:24:54.061Z,6.97
2023-05-08T09:27:26.025Z,6.83
2023-05-08T09:30:02.935Z,6.80
2023-05-08T09:32:33.554Z,7.63
2023-05-08T09:35:00.480Z,6.95
2023-05-08T09:37:27.855Z,7.55
2023-05-08T09:39:55.010Z,7.90
2023-05-08T09:42:23.128Z,7.05
2023-05-08T09:44:51.089Z,7.93
2023-05-08T09:47:26.446Z,7.45
2023-05-08T09:52:26.302Z,7.55
2023-05-08T09:55:06.297Z,7.03
2023-05-08T09:57:38.150Z,7.18
2023-05-08T10:00:12.871Z,6.85
2023-05-08T10:05:24.844Z,7.03
2023-05-08T10:07:51.448Z,7.18
2023-05-08T10:10:28.329Z,6.07
2023-05-08T10:12:56.561Z,6.45
2023-05-08T10:15:24.657Z,6.88
2023-05-08T10:18:00.978Z,6.68
2023-05-08T10:20:30.285Z,6.28
2023-05-08T10:22:57.779Z,6.80
2023-05-08T10:25:25.307Z,6.53
2023-05-08T10:28:16.673Z,6.70
2023-05-08T10:30:47.354Z,6.10
2023-05-08T10:33:15.788Z,7.00
2023-05-08T10:35:42.815Z,6.45
2023-05-08T10:38:09.656Z,6.28
2023-05-08T10:40:37.385Z,6.20
2023-05-08T10:43:05.260Z,6.90
2023-05-08T10:45:32.551Z,6.57
2023-05-08T10:48:08.166Z,6.30
2023-05-08T10:50:57.062Z,6.47
2023-05-08T10:53:34.444Z,7.25
2023-05-08T10:56:01.137Z,7.00
2023-05-08T10:58:37.077Z,6.72
2023-05-08T11:01:09.412Z,6.18
2023-05-08T11:03:42.260Z,6.60
2023-05-08T11:06:09.330Z,6.85
2023-05-08T11:08:46.589Z,6.90
2023-05-08T11:11:28.456Z,6.32
2023-05-08T11:14:16.299Z,6.78
2023-05-08T11:16:54.929Z,5.90
2023-05-08T11:19:22.969Z,6.25
2023-05-08T11:22:11.443Z,7.30
2023-05-08T11:24:40.408Z,7.35
2023-05-08T11:27:07.721Z,7.18
2023-05-08T11:29:34.049Z,7.40
2023-05-08T11:32:00.538Z,7.65
2023-05-08T11:34:42.442Z,7.97
2023-05-08T11:37:10.393Z,7.45
2023-05-08T11:39:37.054Z,6.95
2023-05-08T11:42:21.838Z,7.10
2023-05-08T11:44:48.293Z,9.18
2023-05-08T11:47:18.830Z,7.80
2023-05-08T11:49:45.447Z,7.13
2023-05-08T11:52:11.837Z,7.35
2023-05-08T11:54:38.308Z,7.80
2023-05-08T11:57:04.642Z,7.50
2023-05-08T11:59:35.497Z,7.78
2023-05-08T12:02:08.520Z,7.10
2023-05-08T12:04:44.277Z,6.90
2023-05-08T12:07:11.636Z,7.22
2023-05-08T12:09:38.226Z,7.07
2023-05-08T12:12:04.742Z,7.18
2023-05-08T12:14:31.019Z,7.40
2023-05-08T12:16:57.434Z,7.07
2023-05-08T12:19:23.924Z,7.10
2023-05-08T12:21:51.283Z,6.95
2023-05-08T12:24:22.812Z,6.90
2023-05-08T12:26:50.328Z,6.57
2023-05-08T12:29:19.103Z,7.43
2023-05-08T12:31:45.616Z,6.30
2023-05-08T12:34:12.446Z,6.47
2023-05-08T12:36:38.811Z,7.03
2023-05-08T12:39:16.352Z,7.20
2023-05-08T12:41:47.916Z,7.68
2023-05-08T12:44:25.137Z,6.72
2023-05-08T12:46:56.302Z,7.40
2023-05-08T12:49:31.083Z,7.10
2023-05-08T12:52:08.590Z,7.05
2023-05-08T12:54:41.086Z,7.15
2023-05-08T12:57:18.001Z,7.53
2023-05-08T12:59:46.188Z,6.85
2023-05-08T13:02:24.011Z,7.18
2023-05-08T13:04:55.776Z,7.25
2023-05-08T13:07:22.404Z,7.50
2023-05-08T13:10:04.736Z,7.85
2023-05-08T13:12:31.997Z,7.50
2023-05-08T13:14:58.347Z,7.18
2023-05-08T13:17:24.734Z,7.68
2023-05-08T13:19:51.080Z,6.85
2023-05-08T13:22:17.474Z,7.63
2023-05-08T13:24:43.853Z,7.55
2023-05-08T13:27:10.200Z,7.57
2023-05-08T13:29:36.715Z,6.82
2023-05-08T13:32:03.140Z,7.55
2023-05-08T13:34:29.552Z,7.10
2023-05-08T13:36:55.944Z,7.78
2023-05-08T13:39:22.372Z,7.45
2023-05-08T13:41:48.694Z,7.40
2023-05-08T13:44:15.045Z,7.07
2023-05-08T13:46:41.384Z,7.88
2023-05-08T13:49:07.688Z,7.00
2023-05-08T13:51:33.978Z,7.03
2023-05-08T13:54:01.072Z,6.68
2023-05-08T13:56:27.453Z,7.82
2023-05-08T13:58:53.780Z,7.75
2023-05-08T14:01:26.383Z,7.28
2023-05-08T14:03:54.871Z,7.60
2023-05-08T14:06:21.645Z,6.20
2023-05-08T14:08:51.021Z,7.18
2023-05-08T14:11:18.027Z,7.20
2023-05-08T14:13:44.325Z,7.13
2023-05-08T14:16:12.432Z,7.47
2023-05-08T14:18:38.908Z,8.23
2023-05-08T14:21:05.304Z,7.90
2023-05-08T14:23:31.846Z,7.85
2023-05-08T14:25:58.308Z,7.38
2023-05-08T14:28:24.614Z,8.98
2023-05-08T14:30:50.902Z,8.73
2023-05-08T14:33:19.246Z,7.93
2023-05-08T14:35:48.173Z,8.55
2023-05-08T14:38:14.917Z,8.43
2023-05-08T14:40:41.240Z,8.65
2023-05-08T14:43:07.618Z,8.48
2023-05-08T14:45:33.995Z,8.43
2023-05-08T14:48:00.400Z,7.47
2023-05-08T14:50:27.881Z,7.70
2023-05-08T14:52:54.396Z,7.45
2023-05-08T14:55:21.703Z,6.45
2023-05-08T14:57:48.659Z,7.72
2023-05-08T15:00:17.077Z,6.55
2023-05-08T15:02:44.845Z,7.72
2023-05-08T15:05:19.208Z,6.93
2023-05-08T15:07:46.710Z,7.88
2023-05-08T15:10:13.016Z,7.40
2023-05-08T15:12:39.491Z,7.93
2023-05-08T15:15:06.734Z,7.82
2023-05-08T15:17:36.298Z,7.57
2023-05-08T15:20:03.770Z,7.13
2023-05-08T15:22:30.226Z,7.60
2023-05-08T15:25:02.003Z,5.93
2023-05-08T15:27:29.396Z,6.72
2023-05-08T15:29:55.887Z,6.75
2023-05-08T15:32:22.435Z,6.20
2023-05-08T15:34:48.839Z,5.95
2023-05-08T15:37:15.277Z,6.65
2023-05-08T15:39:43.139Z,6.05
2023-05-08T15:42:09.518Z,5.97
2023-05-08T15:47:05.355Z,5.97
2023-05-08T15:49:31.693Z,5.15
2023-05-08T15:51:58.101Z,5.18
2023-05-08T15:54:24.468Z,5.30
2023-05-08T15:56:50.827Z,6.53
2023-05-08T15:59:17.567Z,5.82
2023-05-08T16:01:44.067Z,5.82
2023-05-08T16:04:10.830Z,5.28
2023-05-08T16:06:37.199Z,5.20
2023-05-08T16:09:03.605Z,5.50
2023-05-08T16:11:31.643Z,5.85
2023-05-08T16:14:01.831Z,5.57
2023-05-08T16:16:28.472Z,6.10
2023-05-08T16:18:54.872Z,6.20
2023-05-08T16:21:21.293Z,6.22
2023-05-08T16:23:47.794Z,6.97
2023-05-08T16:26:16.413Z,6.82
2023-05-08T16:28:42.798Z,6.70
2023-05-08T16:31:09.499Z,6.05
2023-05-08T16:33:35.809Z,6.43
2023-05-08T16:36:02.107Z,6.85
2023-05-08T16:38:28.526Z,6.85
2023-05-08T16:41:00.709Z,6.88
2023-05-08T16:43:27.013Z,7.13
2023-05-08T16:45:53.333Z,6.72
2023-05-08T16:48:19.703Z,7.07
2023-05-08T16:50:46.055Z,6.60
2023-05-08T16:53:12.375Z,6.50
2023-05-08T16:55:38.770Z,6.35
2023-05-08T16:58:07.004Z,6.00
2023-05-08T17:00:33.837Z,7.35
2023-05-08T17:03:00.792Z,7.20
2023-05-08T17:05:27.206Z,7.30
2023-05-08T17:07:55.122Z,6.05
2023-05-08T17:10:21.890Z,6.85
2023-05-08T17:12:48.841Z,6.40
2023-05-08T17:15:15.357Z,6.95
2023-05-08T17:17:42.479Z,6.90
2023-05-08T17:20:09.663Z,6.25
2023-05-08T17:22:35.941Z,6.95
2023-05-08T17:25:02.274Z,7.78
2023-05-08T17:27:28.678Z,7.20
2023-05-08T17:29:55.716Z,8.00
2023-05-08T17:32:22.302Z,7.15
2023-05-08T17:34:48.632Z,7.75
2023-05-08T17:37:15.045Z,7.45
2023-05-08T17:39:41.436Z,7.30
2023-05-08T17:42:07.887Z,7.40
2023-05-08T17:44:34.306Z,6.80
2023-05-08T17:47:00.677Z,7.45
2023-05-08T17:49:27.075Z,7.20
2023-05-08T17:51:53.440Z,7.70
2023-05-08T17:54:19.770Z,7.32
2023-05-08T17:56:46.604Z,7.65
2023-05-08T17:59:12.958Z,8.35
2023-05-08T18:01:39.487Z,8.40
2023-05-08T18:04:05.875Z,7.95
2023-05-08T18:06:32.269Z,6.22
2023-05-08T18:08:58.631Z,8.30
2023-05-08T18:11:26.663Z,6.95
2023-05-08T18:13:54.028Z,7.53
2023-05-08T18:16:21.770Z,7.93
2023-05-08T18:18:49.287Z,8.30
2023-05-08T18:21:15.801Z,8.15
2023-05-08T18:23:42.258Z,7.82
2023-05-08T18:26:13.118Z,7.32
2023-05-08T18:28:39.430Z,7.40
2023-05-08T18:31:05.816Z,8.23
2023-05-08T18:33:32.144Z,8.05
2023-05-08T18:35:58.499Z,7.57
2023-05-08T18:38:24.837Z,8.32
2023-05-08T18:40:51.229Z,8.05
2023-05-08T18:43:17.555Z,6.93
2023-05-08T18:45:43.883Z,8.82
2023-05-08T18:48:11.229Z,9.30
2023-05-08T18:50:37.691Z,8.98
2023-05-08T18:53:04.122Z,8.38
2023-05-08T18:55:30.464Z,8.13
2023-05-08T18:57:56.798Z,8.43
2023-05-08T19:00:23.159Z,8.50
2023-05-08T19:02:49.569Z,8.27
2023-05-08T19:05:16.049Z,8.63
2023-05-08T19:07:42.833Z,8.48
2023-05-08T19:10:10.106Z,9.02
2023-05-08T19:12:36.427Z,8.05
2023-05-08T19:15:02.857Z,9.13
2023-05-08T19:17:29.199Z,8.02
2023-05-08T19:19:55.538Z,8.80
2023-05-08T19:22:21.927Z,8.88
2023-05-08T19:24:48.270Z,8.60
2023-05-08T19:27:14.673Z,9.40
2023-05-08T19:29:41.009Z,8.63
2023-05-08T19:32:07.661Z,8.40
2023-05-08T19:34:36.848Z,8.60
2023-05-08T19:37:03.262Z,8.00
2023-05-08T19:39:29.586Z,8.77
2023-05-08T19:41:56.251Z,8.20
2023-05-08T19:44:22.652Z,9.23
2023-05-08T19:46:50.948Z,8.98
2023-05-08T19:49:17.625Z,9.15
2023-05-08T19:51:44.118Z,7.78
2023-05-08T19:54:10.787Z,8.48
2023-05-08T19:56:37.096Z,8.63
2023-05-08T19:59:03.485Z,8.68
2023-05-08T20:01:29.851Z,9.75
2023-05-08T20:03:58.942Z,9.05
2023-05-08T20:06:26.816Z,9.10
2023-05-08T20:08:53.484Z,8.95
2023-05-08T20:11:19.774Z,8.60
2023-05-08T20:13:46.487Z,8.73
2023-05-08T20:16:13.017Z,9.38
2023-05-08T20:18:39.377Z,9.55
2023-05-08T20:21:05.793Z,9.05
2023-05-08T20:23:32.791Z,8.50
2023-05-08T20:25:59.214Z,10.00
2023-05-08T20:28:26.047Z,9.23
2023-05-08T20:30:52.887Z,9.70
2023-05-08T20:33:20.031Z,8.65
2023-05-08T20:35:46.605Z,9.27
2023-05-08T20:38:14.778Z,9.30
2023-05-08T20:40:41.412Z,9.55
2023-05-08T20:43:07.793Z,8.88
2023-05-08T20:45:34.203Z,9.00
2023-05-08T20:48:00.744Z,9.57
2023-05-08T20:50:27.098Z,9.57
2023-05-08T20:52:53.530Z,9.85
2023-05-08T20:55:20.223Z,9.38
2023-05-08T20:57:46.501Z,9.82
2023-05-08T21:00:13.388Z,8.88
2023-05-08T21:02:41.612Z,8.52
2023-05-08T21:05:08.386Z,9.57
2023-05-08T21:07:35.171Z,9.40
2023-05-08T21:10:01.696Z,9.27
2023-05-08T21:12:28.088Z,9.15
2023-05-08T21:14:54.426Z,8.88
2023-05-08T21:17:20.895Z,9.15
2023-05-08T21:19:47.241Z,10.27
2023-05-08T21:22:13.812Z,9.45
2023-05-08T21:24:43.719Z,10.07
2023-05-08T21:27:10.125Z,9.85
2023-05-08T21:29:36.509Z,9.27
2023-05-08T21:32:05.989Z,9.68
2023-05-08T21:34:32.921Z,9.73
2023-05-08T21:36:59.254Z,9.90
2023-05-08T21:39:25.573Z,10.27
2023-05-08T21:41:51.914Z,10.32
2023-05-08T21:44:18.213Z,8.45
2023-05-08T21:46:44.676Z,9.57
2023-05-08T21:49:11.141Z,9.15
2023-05-08T21:51:37.501Z,9.45
2023-05-08T21:54:04.065Z,9.13
2023-05-08T21:56:30.380Z,9.40
2023-05-08T21:58:56.645Z,9.07
2023-05-08T22:01:23.155Z,10.30
2023-05-08T22:03:49.759Z,9.93
2023-05-08T22:06:16.174Z,9.80
2023-05-08T22:08:42.490Z,9.07
2023-05-08T22:11:08.789Z,10.02
2023-05-08T22:13:35.142Z,10.27
2023-05-08T22:16:01.649Z,10.55
2023-05-08T22:18:28.020Z,10.52
2023-05-08T22:20:54.980Z,10.07
2023-05-08T22:23:21.371Z,10.15
2023-05-08T22:25:47.723Z,9.40
2023-05-08T22:28:14.131Z,10.18
2023-05-08T22:30:40.482Z,10.90
2023-05-08T22:33:06.832Z,10.38
2023-05-08T22:35:34.047Z,9.82
2023-05-08T22:38:00.450Z,10.38
2023-05-08T22:40:27.237Z,9.35
2023-05-08T22:42:55.682Z,9.02
2023-05-08T22:45:22.265Z,10.55
2023-05-08T22:47:48.672Z,9.02
2023-05-08T22:50:16.854Z,9.73
2023-05-08T22:52:43.178Z,9.95
2023-05-08T22:55:09.562Z,9.98
2023-05-08T22:57:36.000Z,9.20
2023-05-08T23:00:02.514Z,10.68
2023-05-08T23:02:33.254Z,10.10
2023-05-08T23:05:00.407Z,10.63
2023-05-08T23:07:26.759Z,9.30
2023-05-08T23:09:53.050Z,9.10
2023-05-08T23:12:19.430Z,9.10
2023-05-08T23:14:45.746Z,9.63
2023-05-08T23:17:13.939Z,10.20
2023-05-08T23:19:42.261Z,8.68
2023-05-08T23:22:09.348Z,10.13
2023-05-08T23:24:36.382Z,9.93
2023-05-08T23:27:02.934Z,9.57
2023-05-08T23:29:29.469Z,10.32
2023-05-08T23:31:55.801Z,10.77
2023-05-08T23:34:22.105Z,11.27
2023-05-08T23:36:48.470Z,9.82
2023-05-08T23:39:14.814Z,10.57
2023-05-08T23:41:41.156Z,9.07
2023-05-08T23:44:07.530Z,10.07
2023-05-08T23:46:33.902Z,10.75
2023-05-08T23:49:00.374Z,10.30
2023-05-08T23:51:26.725Z,9.57
2023-05-08T23:53:53.094Z,9.70
2023-05-08T23:56:19.418Z,9.88
2023-05-08T23:58:45.828Z,9.07
